sensor_id;sensor_type;location;lat;lon;timestamp;P1;durP1;ratioP1;P2;durP2;ratioP2
74523;SDS011;63074;44.696;10.358;2023-09-08T00:02:08;5.80;;;3.97;;
74523;SDS011;63074;44.696;10.358;2023-09-08T00:04:35;4.70;;;3.72;;
74523;SDS011;63074;44.696;10.358;2023-09-08T00:07:01;5.45;;;3.33;;
74523;SDS011;63074;44.696;10.358;2023-09-08T00:09:27;6.25;;;3.47;;
74523;SDS011;63074;44.696;10.358;2023-09-08T00:11:53;4.05;;;3.20;;
74523;SDS011;63074;44.696;10.358;2023-09-08T00:14:20;5.18;;;3.72;;
74523;SDS011;63074;44.696;10.358;2023-09-08T00:16:46;6.20;;;3.47;;
74523;SDS011;63074;44.696;10.358;2023-09-08T00:19:13;5.30;;;3.33;;
74523;SDS011;63074;44.696;10.358;2023-09-08T00:21:39;4.10;;;3.40;;
74523;SDS011;63074;44.696;10.358;2023-09-08T00:24:08;4.70;;;3.13;;
74523;SDS011;63074;44.696;10.358;2023-09-08T00:26:34;4.40;;;3.78;;
74523;SDS011;63074;44.696;10.358;2023-09-08T00:29:00;5.85;;;3.13;;
74523;SDS011;63074;44.696;10.358;2023-09-08T00:31:26;3.97;;;2.97;;
74523;SDS011;63074;44.696;10.358;2023-09-08T00:33:53;6.65;;;3.80;;
74523;SDS011;63074;44.696;10.358;2023-09-08T00:36:19;5.38;;;3.65;;
74523;SDS011;63074;44.696;10.358;2023-09-08T00:38:45;7.68;;;3.90;;
74523;SDS011;63074;44.696;10.358;2023-09-08T00:41:11;6.95;;;3.78;;
74523;SDS011;63074;44.696;10.358;2023-09-08T00:43:37;5.93;;;4.03;;
74523;SDS011;63074;44.696;10.358;2023-09-08T00:46:04;5.30;;;3.65;;
74523;SDS011;63074;44.696;10.358;2023-09-08T00:48:31;6.53;;;4.03;;
74523;SDS011;63074;44.696;10.358;2023-09-08T00:50:57;6.20;;;3.75;;
74523;SDS011;63074;44.696;10.358;2023-09-08T00:53:23;5.85;;;3.95;;
74523;SDS011;63074;44.696;10.358;2023-09-08T00:55:50;5.47;;;4.05;;
74523;SDS011;63074;44.696;10.358;2023-09-08T00:58:17;5.82;;;4.22;;
74523;SDS011;63074;44.696;10.358;2023-09-08T01:00:43;5.82;;;4.15;;
74523;SDS011;63074;44.696;10.358;2023-09-08T01:03:11;6.28;;;4.57;;
74523;SDS011;63074;44.696;10.358;2023-09-08T01:05:37;7.72;;;4.32;;
74523;SDS011;63074;44.696;10.358;2023-09-08T01:08:04;7.25;;;4.57;;
74523;SDS011;63074;44.696;10.358;2023-09-08T01:10:31;6.32;;;3.95;;
74523;SDS011;63074;44.696;10.358;2023-09-08T01:12:58;6.18;;;3.35;;
74523;SDS011;63074;44.696;10.358;2023-09-08T01:15:24;5.78;;;4.22;;
74523;SDS011;63074;44.696;10.358;2023-09-08T01:17:50;5.88;;;4.35;;
74523;SDS011;63074;44.696;10.358;2023-09-08T01:20:24;5.57;;;4.00;;
74523;SDS011;63074;44.696;10.358;2023-09-08T01:23:08;6.50;;;3.63;;
74523;SDS011;63074;44.696;10.358;2023-09-08T01:25:40;6.82;;;4.22;;
74523;SDS011;63074;44.696;10.358;2023-09-08T01:28:28;5.72;;;4.05;;
74523;SDS011;63074;44.696;10.358;2023-09-08T01:30:56;5.25;;;4.05;;
74523;SDS011;63074;44.696;10.358;2023-09-08T01:33:22;5.15;;;3.67;;
74523;SDS011;63074;44.696;10.358;2023-09-08T01:35:49;5.57;;;3.75;;
74523;SDS011;63074;44.696;10.358;2023-09-08T01:38:16;6.93;;;4.47;;
74523;SDS011;63074;44.696;10.358;2023-09-08T01:40:42;4.50;;;3.55;;
74523;SDS011;63074;44.696;10.358;2023-09-08T01:43:08;4.75;;;3.67;;
74523;SDS011;63074;44.696;10.358;2023-09-08T01:45:35;5.13;;;3.53;;
74523;SDS011;63074;44.696;10.358;2023-09-08T01:48:01;5.82;;;3.50;;
74523;SDS011;63074;44.696;10.358;2023-09-08T01:50:27;4.95;;;3.83;;
74523;SDS011;63074;44.696;10.358;2023-09-08T01:52:54;7.07;;;3.70;;
74523;SDS011;63074;44.696;10.358;2023-09-08T01:55:20;4.93;;;4.10;;
74523;SDS011;63074;44.696;10.358;2023-09-08T01:57:46;7.45;;;3.53;;
74523;SDS011;63074;44.696;10.358;2023-09-08T02:00:12;5.07;;;3.65;;
74523;SDS011;63074;44.696;10.358;2023-09-08T02:02:39;5.07;;;3.67;;
74523;SDS011;63074;44.696;10.358;2023-09-08T02:05:06;4.18;;;3.22;;
74523;SDS011;63074;44.696;10.358;2023-09-08T02:10:01;4.70;;;4.10;;
74523;SDS011;63074;44.696;10.358;2023-09-08T02:12:28;5.90;;;4.10;;
74523;SDS011;63074;44.696;10.358;2023-09-08T02:14:54;5.03;;;3.90;;
74523;SDS011;63074;44.696;10.358;2023-09-08T02:17:20;5.07;;;3.70;;
74523;SDS011;63074;44.696;10.358;2023-09-08T02:19:46;6.35;;;4.13;;
74523;SDS011;63074;44.696;10.358;2023-09-08T02:22:13;6.85;;;4.03;;
74523;SDS011;63074;44.696;10.358;2023-09-08T02:24:39;6.03;;;3.55;;
74523;SDS011;63074;44.696;10.358;2023-09-08T02:27:05;4.97;;;4.20;;
74523;SDS011;63074;44.696;10.358;2023-09-08T02:29:32;5.43;;;4.13;;
74523;SDS011;63074;44.696;10.358;2023-09-08T02:31:58;4.30;;;3.83;;
74523;SDS011;63074;44.696;10.358;2023-09-08T02:34:24;7.13;;;4.20;;
74523;SDS011;63074;44.696;10.358;2023-09-08T02:36:50;5.68;;;3.92;;
74523;SDS011;63074;44.696;10.358;2023-09-08T02:39:16;5.57;;;4.18;;
74523;SDS011;63074;44.696;10.358;2023-09-08T02:41:43;6.20;;;3.72;;
74523;SDS011;63074;44.696;10.358;2023-09-08T02:44:09;5.50;;;3.80;;
74523;SDS011;63074;44.696;10.358;2023-09-08T02:46:35;7.05;;;4.40;;
74523;SDS011;63074;44.696;10.358;2023-09-08T02:49:01;5.88;;;4.65;;
74523;SDS011;63074;44.696;10.358;2023-09-08T02:51:28;6.57;;;4.03;;
74523;SDS011;63074;44.696;10.358;2023-09-08T02:53:54;5.80;;;4.07;;
74523;SDS011;63074;44.696;10.358;2023-09-08T02:56:20;6.45;;;4.32;;
74523;SDS011;63074;44.696;10.358;2023-09-08T02:58:46;6.78;;;4.10;;
74523;SDS011;63074;44.696;10.358;2023-09-08T03:01:13;5.30;;;3.83;;
74523;SDS011;63074;44.696;10.358;2023-09-08T03:03:43;6.22;;;3.97;;
74523;SDS011;63074;44.696;10.358;2023-09-08T03:08:36;5.93;;;3.58;;
74523;SDS011;63074;44.696;10.358;2023-09-08T03:11:03;6.75;;;4.32;;
74523;SDS011;63074;44.696;10.358;2023-09-08T03:13:33;5.63;;;3.63;;
74523;SDS011;63074;44.696;10.358;2023-09-08T03:16:06;4.85;;;3.65;;
74523;SDS011;63074;44.696;10.358;2023-09-08T03:18:34;6.13;;;4.32;;
74523;SDS011;63074;44.696;10.358;2023-09-08T03:21:02;6.50;;;4.20;;
74523;SDS011;63074;44.696;10.358;2023-09-08T03:23:41;6.55;;;3.85;;
74523;SDS011;63074;44.696;10.358;2023-09-08T03:26:08;4.35;;;3.47;;
74523;SDS011;63074;44.696;10.358;2023-09-08T03:28:35;5.35;;;3.80;;
74523;SDS011;63074;44.696;10.358;2023-09-08T03:31:03;6.28;;;4.40;;
74523;SDS011;63074;44.696;10.358;2023-09-08T03:33:30;4.68;;;4.03;;
74523;SDS011;63074;44.696;10.358;2023-09-08T03:35:56;7.15;;;4.80;;
74523;SDS011;63074;44.696;10.358;2023-09-08T03:38:22;5.80;;;4.10;;
74523;SDS011;63074;44.696;10.358;2023-09-08T03:40:49;6.63;;;4.47;;
74523;SDS011;63074;44.696;10.358;2023-09-08T03:43:15;6.15;;;4.50;;
74523;SDS011;63074;44.696;10.358;2023-09-08T03:45:41;6.15;;;4.22;;
74523;SDS011;63074;44.696;10.358;2023-09-08T03:48:08;5.40;;;4.20;;
74523;SDS011;63074;44.696;10.358;2023-09-08T03:50:34;6.55;;;4.60;;
74523;SDS011;63074;44.696;10.358;2023-09-08T03:53:01;6.57;;;5.10;;
74523;SDS011;63074;44.696;10.358;2023-09-08T03:55:27;6.22;;;4.43;;
74523;SDS011;63074;44.696;10.358;2023-09-08T03:57:53;6.40;;;4.18;;
74523;SDS011;63074;44.696;10.358;2023-09-08T04:00:19;7.93;;;4.22;;
74523;SDS011;63074;44.696;10.358;2023-09-08T04:02:50;6.20;;;4.10;;
74523;SDS011;63074;44.696;10.358;2023-09-08T04:05:16;6.97;;;4.43;;
74523;SDS011;63074;44.696;10.358;2023-09-08T04:07:46;7.00;;;4.63;;
74523;SDS011;63074;44.696;10.358;2023-09-08T04:10:12;6.40;;;4.75;;
74523;SDS011;63074;44.696;10.358;2023-09-08T04:12:39;8.75;;;4.80;;
74523;SDS011;63074;44.696;10.358;2023-09-08T04:15:06;6.20;;;4.40;;
74523;SDS011;63074;44.696;10.358;2023-09-08T04:17:33;6.05;;;4.57;;
74523;SDS011;63074;44.696;10.358;2023-09-08T04:20:01;5.68;;;4.60;;
74523;SDS011;63074;44.696;10.358;2023-09-08T04:22:30;6.20;;;4.45;;
74523;SDS011;63074;44.696;10.358;2023-09-08T04:24:57;6.03;;;4.63;;
74523;SDS011;63074;44.696;10.358;2023-09-08T04:27:23;5.40;;;4.82;;
74523;SDS011;63074;44.696;10.358;2023-09-08T04:29:49;6.07;;;4.32;;
74523;SDS011;63074;44.696;10.358;2023-09-08T04:32:16;6.78;;;4.47;;
74523;SDS011;63074;44.696;10.358;2023-09-08T04:34:42;7.75;;;4.40;;
74523;SDS011;63074;44.696;10.358;2023-09-08T04:37:09;5.97;;;4.78;;
74523;SDS011;63074;44.696;10.358;2023-09-08T04:39:35;5.70;;;4.20;;
74523;SDS011;63074;44.696;10.358;2023-09-08T04:42:04;7.65;;;4.65;;
74523;SDS011;63074;44.696;10.358;2023-09-08T04:44:31;7.22;;;4.40;;
74523;SDS011;63074;44.696;10.358;2023-09-08T04:46:57;7.18;;;4.82;;
74523;SDS011;63074;44.696;10.358;2023-09-08T04:49:23;6.75;;;4.57;;
74523;SDS011;63074;44.696;10.358;2023-09-08T04:51:50;7.22;;;4.78;;
74523;SDS011;63074;44.696;10.358;2023-09-08T04:54:16;6.90;;;4.70;;
74523;SDS011;63074;44.696;10.358;2023-09-08T04:56:42;6.90;;;4.47;;
74523;SDS011;63074;44.696;10.358;2023-09-08T04:59:08;6.57;;;4.82;;
74523;SDS011;63074;44.696;10.358;2023-09-08T05:01:34;7.10;;;4.90;;
74523;SDS011;63074;44.696;10.358;2023-09-08T05:04:02;7.18;;;5.07;;
74523;SDS011;63074;44.696;10.358;2023-09-08T05:06:29;5.97;;;4.97;;
74523;SDS011;63074;44.696;10.358;2023-09-08T05:08:55;6.55;;;4.72;;
74523;SDS011;63074;44.696;10.358;2023-09-08T05:11:22;5.55;;;4.30;;
74523;SDS011;63074;44.696;10.358;2023-09-08T05:13:48;6.82;;;4.50;;
74523;SDS011;63074;44.696;10.358;2023-09-08T05:16:15;7.63;;;5.00;;
74523;SDS011;63074;44.696;10.358;2023-09-08T05:18:43;8.93;;;4.50;;
74523;SDS011;63074;44.696;10.358;2023-09-08T05:21:10;7.82;;;5.43;;
74523;SDS011;63074;44.696;10.358;2023-09-08T05:23:36;8.52;;;5.20;;
74523;SDS011;63074;44.696;10.358;2023-09-08T05:26:02;10.48;;;4.85;;
74523;SDS011;63074;44.696;10.358;2023-09-08T05:28:28;6.93;;;4.43;;
74523;SDS011;63074;44.696;10.358;2023-09-08T05:30:54;9.60;;;5.20;;
74523;SDS011;63074;44.696;10.358;2023-09-08T05:33:21;9.63;;;5.57;;
74523;SDS011;63074;44.696;10.358;2023-09-08T05:35:47;8.80;;;5.43;;
74523;SDS011;63074;44.696;10.358;2023-09-08T05:38:13;7.97;;;4.85;;
74523;SDS011;63074;44.696;10.358;2023-09-08T05:40:39;5.72;;;4.13;;
74523;SDS011;63074;44.696;10.358;2023-09-08T05:43:06;8.18;;;4.97;;
74523;SDS011;63074;44.696;10.358;2023-09-08T05:45:32;10.85;;;5.60;;
74523;SDS011;63074;44.696;10.358;2023-09-08T05:47:59;9.50;;;5.45;;
74523;SDS011;63074;44.696;10.358;2023-09-08T05:50:26;8.07;;;5.22;;
74523;SDS011;63074;44.696;10.358;2023-09-08T05:52:52;9.00;;;5.22;;
74523;SDS011;63074;44.696;10.358;2023-09-08T05:55:18;9.75;;;5.15;;
74523;SDS011;63074;44.696;10.358;2023-09-08T05:57:44;8.75;;;5.80;;
74523;SDS011;63074;44.696;10.358;2023-09-08T06:00:10;11.52;;;5.07;;
74523;SDS011;63074;44.696;10.358;2023-09-08T06:02:37;8.30;;;4.85;;
74523;SDS011;63074;44.696;10.358;2023-09-08T06:05:04;9.10;;;5.40;;
74523;SDS011;63074;44.696;10.358;2023-09-08T06:07:30;10.68;;;5.35;;
74523;SDS011;63074;44.696;10.358;2023-09-08T06:09:56;6.93;;;4.55;;
74523;SDS011;63074;44.696;10.358;2023-09-08T06:12:22;6.68;;;4.90;;
74523;SDS011;63074;44.696;10.358;2023-09-08T06:14:49;7.88;;;5.28;;
74523;SDS011;63074;44.696;10.358;2023-09-08T06:17:15;6.43;;;4.75;;
74523;SDS011;63074;44.696;10.358;2023-09-08T06:19:41;8.73;;;5.05;;
74523;SDS011;63074;44.696;10.358;2023-09-08T06:22:07;8.50;;;5.18;;
74523;SDS011;63074;44.696;10.358;2023-09-08T06:24:33;8.20;;;5.82;;
74523;SDS011;63074;44.696;10.358;2023-09-08T06:27:00;7.50;;;4.90;;
74523;SDS011;63074;44.696;10.358;2023-09-08T06:29:27;5.10;;;4.03;;
74523;SDS011;63074;44.696;10.358;2023-09-08T06:31:53;7.30;;;4.72;;
74523;SDS011;63074;44.696;10.358;2023-09-08T06:34:19;8.45;;;4.70;;
74523;SDS011;63074;44.696;10.358;2023-09-08T06:36:47;6.88;;;4.75;;
74523;SDS011;63074;44.696;10.358;2023-09-08T06:39:14;7.55;;;4.82;;
74523;SDS011;63074;44.696;10.358;2023-09-08T06:41:40;8.38;;;4.47;;
74523;SDS011;63074;44.696;10.358;2023-09-08T06:44:06;6.43;;;4.63;;
74523;SDS011;63074;44.696;10.358;2023-09-08T06:46:32;6.68;;;4.65;;
74523;SDS011;63074;44.696;10.358;2023-09-08T06:48:58;5.70;;;4.30;;
74523;SDS011;63074;44.696;10.358;2023-09-08T06:51:25;7.22;;;4.93;;
74523;SDS011;63074;44.696;10.358;2023-09-08T06:53:57;7.13;;;4.30;;
74523;SDS011;63074;44.696;10.358;2023-09-08T06:56:25;5.90;;;4.75;;
74523;SDS011;63074;44.696;10.358;2023-09-08T06:58:51;6.53;;;5.13;;
74523;SDS011;63074;44.696;10.358;2023-09-08T07:01:17;9.15;;;4.97;;
74523;SDS011;63074;44.696;10.358;2023-09-08T07:03:43;7.00;;;4.90;;
74523;SDS011;63074;44.696;10.358;2023-09-08T07:06:10;6.40;;;4.72;;
74523;SDS011;63074;44.696;10.358;2023-09-08T07:08:36;7.15;;;4.35;;
74523;SDS011;63074;44.696;10.358;2023-09-08T07:11:02;6.78;;;4.68;;
74523;SDS011;63074;44.696;10.358;2023-09-08T07:13:29;6.65;;;4.82;;
74523;SDS011;63074;44.696;10.358;2023-09-08T07:15:55;7.40;;;5.03;;
74523;SDS011;63074;44.696;10.358;2023-09-08T07:18:21;5.18;;;3.95;;
74523;SDS011;63074;44.696;10.358;2023-09-08T07:20:47;9.13;;;5.53;;
74523;SDS011;63074;44.696;10.358;2023-09-08T07:23:14;5.97;;;4.47;;
74523;SDS011;63074;44.696;10.358;2023-09-08T07:25:45;7.22;;;5.13;;
74523;SDS011;63074;44.696;10.358;2023-09-08T07:28:14;7.95;;;5.15;;
74523;SDS011;63074;44.696;10.358;2023-09-08T07:30:41;6.85;;;4.38;;
74523;SDS011;63074;44.696;10.358;2023-09-08T07:33:08;9.05;;;4.95;;
74523;SDS011;63074;44.696;10.358;2023-09-08T07:35:38;7.82;;;5.43;;
74523;SDS011;63074;44.696;10.358;2023-09-08T07:38:04;8.10;;;5.30;;
74523;SDS011;63074;44.696;10.358;2023-09-08T07:40:32;8.50;;;5.03;;
74523;SDS011;63074;44.696;10.358;2023-09-08T07:42:59;8.13;;;4.32;;
74523;SDS011;63074;44.696;10.358;2023-09-08T07:45:25;7.30;;;5.05;;
74523;SDS011;63074;44.696;10.358;2023-09-08T07:47:51;8.02;;;4.97;;
74523;SDS011;63074;44.696;10.358;2023-09-08T07:52:46;6.68;;;5.25;;
74523;SDS011;63074;44.696;10.358;2023-09-08T07:55:13;7.13;;;4.78;;
74523;SDS011;63074;44.696;10.358;2023-09-08T07:57:41;7.85;;;5.28;;
74523;SDS011;63074;44.696;10.358;2023-09-08T08:00:08;9.73;;;5.85;;
74523;SDS011;63074;44.696;10.358;2023-09-08T08:02:47;7.57;;;4.95;;
74523;SDS011;63074;44.696;10.358;2023-09-08T08:05:15;9.93;;;5.65;;
74523;SDS011;63074;44.696;10.358;2023-09-08T08:07:42;6.85;;;4.78;;
74523;SDS011;63074;44.696;10.358;2023-09-08T08:10:09;7.53;;;5.32;;
74523;SDS011;63074;44.696;10.358;2023-09-08T08:12:36;10.50;;;6.10;;
74523;SDS011;63074;44.696;10.358;2023-09-08T08:15:03;12.85;;;8.30;;
74523;SDS011;63074;44.696;10.358;2023-09-08T08:17:31;9.30;;;5.45;;
74523;SDS011;63074;44.696;10.358;2023-09-08T08:19:57;11.68;;;6.78;;
74523;SDS011;63074;44.696;10.358;2023-09-08T08:22:24;9.13;;;5.57;;
74523;SDS011;63074;44.696;10.358;2023-09-08T08:24:50;9.95;;;5.13;;
74523;SDS011;63074;44.696;10.358;2023-09-08T08:27:16;10.13;;;6.25;;
74523;SDS011;63074;44.696;10.358;2023-09-08T08:29:42;8.75;;;5.45;;
74523;SDS011;63074;44.696;10.358;2023-09-08T08:32:09;8.50;;;5.68;;
74523;SDS011;63074;44.696;10.358;2023-09-08T08:34:37;7.78;;;5.53;;
74523;SDS011;63074;44.696;10.358;2023-09-08T08:37:04;6.82;;;4.50;;
74523;SDS011;63074;44.696;10.358;2023-09-08T08:39:30;6.72;;;4.68;;
74523;SDS011;63074;44.696;10.358;2023-09-08T08:41:56;6.75;;;4.85;;
74523;SDS011;63074;44.696;10.358;2023-09-08T08:44:23;7.63;;;5.15;;
74523;SDS011;63074;44.696;10.358;2023-09-08T08:46:49;8.45;;;5.22;;
74523;SDS011;63074;44.696;10.358;2023-09-08T08:49:16;7.85;;;5.35;;
74523;SDS011;63074;44.696;10.358;2023-09-08T08:51:44;8.00;;;5.40;;
74523;SDS011;63074;44.696;10.358;2023-09-08T08:54:12;7.13;;;4.55;;
74523;SDS011;63074;44.696;10.358;2023-09-08T08:56:40;9.30;;;6.10;;
74523;SDS011;63074;44.696;10.358;2023-09-08T08:59:07;8.73;;;6.07;;
74523;SDS011;63074;44.696;10.358;2023-09-08T09:01:36;8.68;;;6.68;;
74523;SDS011;63074;44.696;10.358;2023-09-08T09:04:05;6.82;;;4.75;;
74523;SDS011;63074;44.696;10.358;2023-09-08T09:08:58;8.00;;;5.35;;
74523;SDS011;63074;44.696;10.358;2023-09-08T09:11:26;9.23;;;4.97;;
74523;SDS011;63074;44.696;10.358;2023-09-08T09:13:52;7.70;;;4.60;;
74523;SDS011;63074;44.696;10.358;2023-09-08T09:16:18;6.82;;;4.72;;
74523;SDS011;63074;44.696;10.358;2023-09-08T09:18:58;7.20;;;4.38;;
74523;SDS011;63074;44.696;10.358;2023-09-08T09:21:42;11.38;;;4.68;;
74523;SDS011;63074;44.696;10.358;2023-09-08T09:24:13;6.25;;;4.35;;
74523;SDS011;63074;44.696;10.358;2023-09-08T09:26:40;8.52;;;4.80;;
74523;SDS011;63074;44.696;10.358;2023-09-08T09:29:11;7.22;;;4.38;;
74523;SDS011;63074;44.696;10.358;2023-09-08T09:32:23;5.20;;;3.60;;
74523;SDS011;63074;44.696;10.358;2023-09-08T09:34:29;5.55;;;4.38;;
74523;SDS011;63074;44.696;10.358;2023-09-08T09:36:55;7.40;;;4.57;;
74523;SDS011;63074;44.696;10.358;2023-09-08T09:39:23;6.18;;;4.03;;
74523;SDS011;63074;44.696;10.358;2023-09-08T09:41:53;5.35;;;3.90;;
74523;SDS011;63074;44.696;10.358;2023-09-08T09:44:23;6.47;;;4.78;;
74523;SDS011;63074;44.696;10.358;2023-09-08T09:46:53;7.00;;;4.18;;
74523;SDS011;63074;44.696;10.358;2023-09-08T09:49:20;6.63;;;5.03;;
74523;SDS011;63074;44.696;10.358;2023-09-08T09:51:47;8.20;;;4.18;;
74523;SDS011;63074;44.696;10.358;2023-09-08T09:56:44;5.80;;;4.40;;
74523;SDS011;63074;44.696;10.358;2023-09-08T09:59:15;5.18;;;3.95;;
74523;SDS011;63074;44.696;10.358;2023-09-08T10:01:41;5.32;;;4.53;;
74523;SDS011;63074;44.696;10.358;2023-09-08T10:04:08;6.10;;;4.00;;
74523;SDS011;63074;44.696;10.358;2023-09-08T10:06:36;5.95;;;4.60;;
74523;SDS011;63074;44.696;10.358;2023-09-08T10:09:04;5.60;;;4.22;;
74523;SDS011;63074;44.696;10.358;2023-09-08T10:11:38;9.70;;;3.97;;
74523;SDS011;63074;44.696;10.358;2023-09-08T10:14:09;5.57;;;4.15;;
74523;SDS011;63074;44.696;10.358;2023-09-08T10:16:38;5.95;;;4.95;;
74523;SDS011;63074;44.696;10.358;2023-09-08T10:19:08;6.45;;;4.65;;
74523;SDS011;63074;44.696;10.358;2023-09-08T10:24:14;6.47;;;3.38;;
74523;SDS011;63074;44.696;10.358;2023-09-08T10:26:43;6.18;;;4.15;;
74523;SDS011;63074;44.696;10.358;2023-09-08T10:29:16;6.22;;;4.00;;
74523;SDS011;63074;44.696;10.358;2023-09-08T10:31:44;7.20;;;5.40;;
74523;SDS011;63074;44.696;10.358;2023-09-08T10:34:11;6.45;;;4.32;;
74523;SDS011;63074;44.696;10.358;2023-09-08T10:36:38;5.95;;;3.80;;
74523;SDS011;63074;44.696;10.358;2023-09-08T10:47:55;6.03;;;3.85;;
74523;SDS011;63074;44.696;10.358;2023-09-08T10:50:32;5.55;;;3.78;;
74523;SDS011;63074;44.696;10.358;2023-09-08T10:53:16;5.00;;;4.03;;
74523;SDS011;63074;44.696;10.358;2023-09-08T10:55:46;5.22;;;3.95;;
74523;SDS011;63074;44.696;10.358;2023-09-08T10:58:32;9.30;;;3.97;;
74523;SDS011;63074;44.696;10.358;2023-09-08T11:06:50;5.70;;;4.30;;
74523;SDS011;63074;44.696;10.358;2023-09-08T11:09:16;7.43;;;4.55;;
74523;SDS011;63074;44.696;10.358;2023-09-08T11:11:42;6.90;;;5.25;;
74523;SDS011;63074;44.696;10.358;2023-09-08T11:14:08;5.38;;;4.38;;
74523;SDS011;63074;44.696;10.358;2023-09-08T11:16:35;6.47;;;5.35;;
74523;SDS011;63074;44.696;10.358;2023-09-08T11:19:01;7.13;;;4.18;;
74523;SDS011;63074;44.696;10.358;2023-09-08T11:21:29;5.35;;;4.00;;
74523;SDS011;63074;44.696;10.358;2023-09-08T11:24:00;8.65;;;4.22;;
74523;SDS011;63074;44.696;10.358;2023-09-08T11:26:34;6.93;;;4.50;;
74523;SDS011;63074;44.696;10.358;2023-09-08T11:29:00;5.55;;;4.38;;
74523;SDS011;63074;44.696;10.358;2023-09-08T11:31:27;6.35;;;3.70;;
74523;SDS011;63074;44.696;10.358;2023-09-08T11:33:57;6.05;;;4.22;;
74523;SDS011;63074;44.696;10.358;2023-09-08T11:36:25;5.05;;;4.38;;
74523;SDS011;63074;44.696;10.358;2023-09-08T11:38:52;5.18;;;4.28;;
74523;SDS011;63074;44.696;10.358;2023-09-08T11:41:18;4.28;;;3.45;;
74523;SDS011;63074;44.696;10.358;2023-09-08T11:43:49;5.72;;;3.95;;
74523;SDS011;63074;44.696;10.358;2023-09-08T11:46:15;6.65;;;4.63;;
74523;SDS011;63074;44.696;10.358;2023-09-08T11:48:43;4.90;;;4.18;;
74523;SDS011;63074;44.696;10.358;2023-09-08T11:51:09;5.15;;;4.13;;
74523;SDS011;63074;44.696;10.358;2023-09-08T11:53:36;5.40;;;4.40;;
74523;SDS011;63074;44.696;10.358;2023-09-08T11:56:03;5.00;;;3.72;;
74523;SDS011;63074;44.696;10.358;2023-09-08T11:58:29;5.07;;;4.22;;
74523;SDS011;63074;44.696;10.358;2023-09-08T12:00:56;10.00;;;4.40;;
74523;SDS011;63074;44.696;10.358;2023-09-08T12:03:23;5.20;;;4.03;;
74523;SDS011;63074;44.696;10.358;2023-09-08T12:05:52;4.75;;;4.13;;
74523;SDS011;63074;44.696;10.358;2023-09-08T12:08:20;6.30;;;4.63;;
74523;SDS011;63074;44.696;10.358;2023-09-08T12:10:49;4.97;;;4.10;;
74523;SDS011;63074;44.696;10.358;2023-09-08T12:13:22;6.72;;;4.00;;
74523;SDS011;63074;44.696;10.358;2023-09-08T12:15:49;5.22;;;4.25;;
74523;SDS011;63074;44.696;10.358;2023-09-08T12:18:15;4.95;;;4.22;;
74523;SDS011;63074;44.696;10.358;2023-09-08T12:20:41;8.43;;;4.43;;
74523;SDS011;63074;44.696;10.358;2023-09-08T12:25:48;6.75;;;4.78;;
74523;SDS011;63074;44.696;10.358;2023-09-08T12:28:16;6.00;;;4.40;;
74523;SDS011;63074;44.696;10.358;2023-09-08T12:33:10;11.88;;;4.45;;
74523;SDS011;63074;44.696;10.358;2023-09-08T12:35:42;10.15;;;4.22;;
74523;SDS011;63074;44.696;10.358;2023-09-08T12:38:09;6.60;;;4.90;;
74523;SDS011;63074;44.696;10.358;2023-09-08T12:40:36;5.68;;;4.65;;
74523;SDS011;63074;44.696;10.358;2023-09-08T12:43:03;5.65;;;4.53;;
74523;SDS011;63074;44.696;10.358;2023-09-08T12:45:30;6.63;;;4.78;;
74523;SDS011;63074;44.696;10.358;2023-09-08T12:48:00;6.63;;;4.18;;
74523;SDS011;63074;44.696;10.358;2023-09-08T12:50:28;6.07;;;4.55;;
74523;SDS011;63074;44.696;10.358;2023-09-08T12:52:55;5.38;;;4.20;;
74523;SDS011;63074;44.696;10.358;2023-09-08T12:55:22;6.32;;;5.13;;
74523;SDS011;63074;44.696;10.358;2023-09-08T12:57:49;9.90;;;5.38;;
74523;SDS011;63074;44.696;10.358;2023-09-08T13:00:19;6.55;;;5.07;;
74523;SDS011;63074;44.696;10.358;2023-09-08T13:02:48;5.65;;;4.90;;
74523;SDS011;63074;44.696;10.358;2023-09-08T13:05:14;6.32;;;4.80;;
74523;SDS011;63074;44.696;10.358;2023-09-08T13:07:41;6.38;;;4.70;;
74523;SDS011;63074;44.696;10.358;2023-09-08T13:10:07;6.72;;;4.70;;
74523;SDS011;63074;44.696;10.358;2023-09-08T13:12:33;7.50;;;5.10;;
74523;SDS011;63074;44.696;10.358;2023-09-08T13:14:59;7.85;;;4.38;;
74523;SDS011;63074;44.696;10.358;2023-09-08T13:17:26;5.00;;;4.43;;
74523;SDS011;63074;44.696;10.358;2023-09-08T13:19:52;6.10;;;4.72;;
74523;SDS011;63074;44.696;10.358;2023-09-08T13:22:19;6.85;;;4.75;;
74523;SDS011;63074;44.696;10.358;2023-09-08T13:24:46;6.85;;;4.65;;
74523;SDS011;63074;44.696;10.358;2023-09-08T13:27:12;6.60;;;5.03;;
74523;SDS011;63074;44.696;10.358;2023-09-08T13:29:40;7.35;;;4.95;;
74523;SDS011;63074;44.696;10.358;2023-09-08T13:32:06;7.82;;;4.97;;
74523;SDS011;63074;44.696;10.358;2023-09-08T13:34:32;5.22;;;4.47;;
74523;SDS011;63074;44.696;10.358;2023-09-08T13:37:00;6.57;;;4.55;;
74523;SDS011;63074;44.696;10.358;2023-09-08T13:39:27;5.60;;;4.90;;
74523;SDS011;63074;44.696;10.358;2023-09-08T13:41:54;8.88;;;4.88;;
74523;SDS011;63074;44.696;10.358;2023-09-08T13:44:22;7.38;;;4.22;;
74523;SDS011;63074;44.696;10.358;2023-09-08T13:46:49;5.65;;;4.40;;
74523;SDS011;63074;44.696;10.358;2023-09-08T13:49:17;6.72;;;5.18;;
74523;SDS011;63074;44.696;10.358;2023-09-08T13:51:43;7.03;;;4.55;;
74523;SDS011;63074;44.696;10.358;2023-09-08T13:54:10;7.93;;;4.40;;
74523;SDS011;63074;44.696;10.358;2023-09-08T13:56:38;6.25;;;4.97;;
74523;SDS011;63074;44.696;10.358;2023-09-08T13:59:05;6.15;;;4.75;;
74523;SDS011;63074;44.696;10.358;2023-09-08T14:01:33;6.38;;;4.47;;
74523;SDS011;63074;44.696;10.358;2023-09-08T14:04:00;6.43;;;4.53;;
74523;SDS011;63074;44.696;10.358;2023-09-08T14:06:28;8.60;;;4.57;;
74523;SDS011;63074;44.696;10.358;2023-09-08T14:08:54;5.85;;;4.55;;
74523;SDS011;63074;44.696;10.358;2023-09-08T14:11:23;5.57;;;4.35;;
74523;SDS011;63074;44.696;10.358;2023-09-08T14:13:50;8.77;;;4.63;;
74523;SDS011;63074;44.696;10.358;2023-09-08T14:16:17;5.97;;;4.25;;
74523;SDS011;63074;44.696;10.358;2023-09-08T14:18:44;6.28;;;4.47;;
74523;SDS011;63074;44.696;10.358;2023-09-08T14:21:10;6.65;;;4.53;;
74523;SDS011;63074;44.696;10.358;2023-09-08T14:23:37;6.00;;;4.07;;
74523;SDS011;63074;44.696;10.358;2023-09-08T14:26:03;5.97;;;3.92;;
74523;SDS011;63074;44.696;10.358;2023-09-08T14:28:30;5.80;;;4.45;;
74523;SDS011;63074;44.696;10.358;2023-09-08T14:30:59;6.60;;;4.40;;
74523;SDS011;63074;44.696;10.358;2023-09-08T14:33:25;8.50;;;4.57;;
74523;SDS011;63074;44.696;10.358;2023-09-08T14:35:51;5.57;;;4.28;;
74523;SDS011;63074;44.696;10.358;2023-09-08T14:38:19;5.25;;;4.25;;
74523;SDS011;63074;44.696;10.358;2023-09-08T14:40:53;5.03;;;4.50;;
74523;SDS011;63074;44.696;10.358;2023-09-08T14:43:27;5.40;;;4.85;;
74523;SDS011;63074;44.696;10.358;2023-09-08T14:45:54;5.20;;;4.70;;
74523;SDS011;63074;44.696;10.358;2023-09-08T14:48:23;5.43;;;4.43;;
74523;SDS011;63074;44.696;10.358;2023-09-08T14:50:50;4.70;;;4.13;;
74523;SDS011;63074;44.696;10.358;2023-09-08T14:53:17;5.93;;;5.13;;
74523;SDS011;63074;44.696;10.358;2023-09-08T14:55:43;6.55;;;5.38;;
74523;SDS011;63074;44.696;10.358;2023-09-08T14:58:10;6.10;;;4.93;;
74523;SDS011;63074;44.696;10.358;2023-09-08T15:00:37;5.95;;;4.75;;
74523;SDS011;63074;44.696;10.358;2023-09-08T15:03:04;5.72;;;4.47;;
74523;SDS011;63074;44.696;10.358;2023-09-08T15:05:31;6.18;;;4.80;;
74523;SDS011;63074;44.696;10.358;2023-09-08T15:07:58;7.20;;;4.95;;
74523;SDS011;63074;44.696;10.358;2023-09-08T15:10:24;7.15;;;4.80;;